Time;durP1;ratioP1;P1;durP2;ratioP2;P2;SDS_P1;SDS_P2;PMS_P1;PMS_P2;Temp;Humidity;BMP_temperature;BMP_pressure;BME280_temperature;BME280_humidity;BME280_pressure;Samples;Min_cycle;Max_cycle;Signal;HPM_P1;HPM_P2
2023/09/08 00:02:09;;;;;;;11.35;8.55;;;;;;;;;;5033816;28;20669;-79
2023/09/08 00:04:36;;;;;;;23.90;9.60;;;;;;;;;;5017743;28;20426;-79
2023/09/08 00:07:02;;;;;;;11.10;8.88;;;;;;;;;;5036987;28;20052;-79
2023/09/08 00:09:28;;;;;;;11.32;8.90;;;;;;;;;;5038014;28;20112;-79
2023/09/08 00:11:54;;;;;;;10.77;9.23;;;;;;;;;;5034299;28;20098;-79
2023/09/08 00:14:20;;;;;;;9.98;8.98;;;;;;;;;;5006767;28;20045;-79
2023/09/08 00:16:46;;;;;;;10.40;8.70;;;;;;;;;;5035943;28;20043;-79
2023/09/08 00:19:13;;;;;;;9.88;8.88;;;;;;;;;;5034254;28;20047;-79
2023/09/08 00:21:39;;;;;;;11.25;8.60;;;;;;;;;;5019522;28;20122;-78
2023/09/08 00:24:05;;;;;;;15.38;9.50;;;;;;;;;;5016130;28;20044;-79
2023/09/08 00:26:33;;;;;;;13.23;9.77;;;;;;;;;;5016621;28;20115;-79
2023/09/08 00:28:59;;;;;;;17.02;9.68;;;;;;;;;;5014963;28;20049;-78
2023/09/08 00:31:25;;;;;;;15.18;8.27;;;;;;;;;;5017137;28;20090;-78
2023/09/08 00:33:51;;;;;;;13.63;8.95;;;;;;;;;;5033475;28;20044;-79
2023/09/08 00:36:19;;;;;;;12.23;9.07;;;;;;;;;;5034412;28;20771;-79
2023/09/08 00:38:45;;;;;;;11.43;9.45;;;;;;;;;;5017002;28;20400;-79
2023/09/08 00:41:11;;;;;;;9.90;8.82;;;;;;;;;;5037390;28;20052;-79
2023/09/08 00:43:37;;;;;;;13.20;9.23;;;;;;;;;;5035605;28;20041;-79
2023/09/08 00:46:03;;;;;;;10.13;9.20;;;;;;;;;;5035162;28;20135;-79
2023/09/08 00:48:30;;;;;;;14.05;9.50;;;;;;;;;;5013599;28;20055;-78
2023/09/08 00:50:56;;;;;;;10.57;9.27;;;;;;;;;;5013573;28;20132;-77
2023/09/08 00:53:23;;;;;;;12.15;9.52;;;;;;;;;;5030285;28;20044;-78
2023/09/08 00:55:49;;;;;;;11.70;8.98;;;;;;;;;;5015701;28;20072;-79
2023/09/08 00:58:15;;;;;;;13.10;8.68;;;;;;;;;;4998291;28;20523;-78
2023/09/08 01:00:41;;;;;;;10.60;8.73;;;;;;;;;;5029050;28;20122;-78
2023/09/08 01:03:07;;;;;;;12.32;8.68;;;;;;;;;;5028713;28;21514;-79
2023/09/08 01:05:33;;;;;;;10.10;8.52;;;;;;;;;;5014545;28;20135;-78
2023/09/08 01:08:00;;;;;;;13.23;8.63;;;;;;;;;;5010128;28;20056;-79
2023/09/08 01:10:26;;;;;;;15.05;9.20;;;;;;;;;;5011724;28;20041;-78
2023/09/08 01:12:52;;;;;;;12.93;9.70;;;;;;;;;;5011855;28;20477;-78
2023/09/08 01:15:18;;;;;;;13.60;8.48;;;;;;;;;;5011830;28;20032;-78
2023/09/08 01:17:44;;;;;;;10.15;8.93;;;;;;;;;;5031535;28;20550;-78
2023/09/08 01:20:21;;;;;;;10.68;8.57;;;;;;;;;;5029967;28;21297;-78
2023/09/08 01:22:56;;;;;;;10.43;7.93;;;;;;;;;;5011800;28;20560;-78
2023/09/08 01:25:23;;;;;;;10.48;8.88;;;;;;;;;;5022874;28;20049;-78
2023/09/08 01:27:53;;;;;;;9.27;8.38;;;;;;;;;;5018075;28;20063;-78
2023/09/08 01:30:21;;;;;;;13.65;8.48;;;;;;;;;;5014994;28;20043;-78
2023/09/08 01:32:47;;;;;;;10.18;8.77;;;;;;;;;;5015389;28;20037;-78
2023/09/08 01:35:13;;;;;;;19.05;8.55;;;;;;;;;;5011742;28;20041;-78
2023/09/08 01:37:41;;;;;;;11.43;8.70;;;;;;;;;;5016563;28;20413;-78
2023/09/08 01:40:07;;;;;;;10.70;9.02;;;;;;;;;;5015457;28;20053;-78
2023/09/08 01:42:33;;;;;;;9.85;8.85;;;;;;;;;;5017449;28;20052;-78
2023/09/08 01:44:59;;;;;;;11.55;8.55;;;;;;;;;;5015923;28;20525;-78
2023/09/08 01:47:26;;;;;;;11.77;9.63;;;;;;;;;;5015149;28;20060;-78
2023/09/08 01:49:52;;;;;;;11.40;9.02;;;;;;;;;;5016761;28;20048;-78
2023/09/08 01:52:18;;;;;;;12.65;8.95;;;;;;;;;;5014317;28;20068;-78
2023/09/08 01:54:44;;;;;;;10.55;9.07;;;;;;;;;;5032346;28;20040;-78
2023/09/08 01:57:10;;;;;;;14.70;9.27;;;;;;;;;;5021194;28;20651;-78
2023/09/08 01:59:39;;;;;;;11.10;8.38;;;;;;;;;;5000122;28;20091;-79
2023/09/08 02:02:06;;;;;;;9.63;8.68;;;;;;;;;;5034367;28;20045;-79
2023/09/08 02:04:32;;;;;;;9.50;8.60;;;;;;;;;;5032127;28;20179;-79
2023/09/08 02:06:58;;;;;;;9.88;8.95;;;;;;;;;;4998800;28;20048;-78
2023/09/08 02:09:31;;;;;;;14.60;8.60;;;;;;;;;;4987842;28;20047;-79
2023/09/08 02:11:57;;;;;;;21.85;8.45;;;;;;;;;;5015951;28;20036;-79
2023/09/08 02:14:23;;;;;;;10.85;7.97;;;;;;;;;;5017944;28;20041;-79
2023/09/08 02:16:49;;;;;;;11.68;8.35;;;;;;;;;;5034068;28;20072;-79
2023/09/08 02:19:15;;;;;;;16.08;8.82;;;;;;;;;;5030985;28;20047;-78
2023/09/08 02:21:41;;;;;;;19.35;9.50;;;;;;;;;;5034075;28;20048;-79
2023/09/08 02:24:07;;;;;;;17.50;9.23;;;;;;;;;;5014065;28;20040;-78
2023/09/08 02:26:33;;;;;;;10.13;8.63;;;;;;;;;;5012838;28;20041;-79
2023/09/08 02:29:00;;;;;;;13.95;8.85;;;;;;;;;;5030601;28;20044;-78
2023/09/08 02:31:29;;;;;;;13.30;8.95;;;;;;;;;;5013352;28;20048;-79
2023/09/08 02:33:55;;;;;;;11.38;9.52;;;;;;;;;;5030098;28;20538;-78
2023/09/08 02:36:27;;;;;;;13.77;9.68;;;;;;;;;;5030522;28;20048;-78
2023/09/08 02:38:53;;;;;;;11.23;10.18;;;;;;;;;;5009502;28;20048;-78
2023/09/08 02:41:20;;;;;;;10.68;9.57;;;;;;;;;;5026018;28;20045;-78
2023/09/08 02:43:46;;;;;;;11.57;9.65;;;;;;;;;;5027485;28;20037;-79
2023/09/08 02:46:12;;;;;;;12.68;9.65;;;;;;;;;;5027389;28;20056;-78
2023/09/08 02:48:38;;;;;;;12.27;9.95;;;;;;;;;;5028610;28;20186;-78
2023/09/08 02:51:05;;;;;;;10.73;9.63;;;;;;;;;;5017738;28;20059;-77
2023/09/08 02:53:31;;;;;;;13.02;10.07;;;;;;;;;;5012744;28;20619;-78
2023/09/08 02:55:57;;;;;;;10.05;9.05;;;;;;;;;;5031702;28;20045;-78
2023/09/08 02:58:24;;;;;;;11.35;8.95;;;;;;;;;;5011870;28;20048;-79
2023/09/08 03:00:51;;;;;;;17.83;10.20;;;;;;;;;;5014851;28;20973;-78
2023/09/08 03:03:18;;;;;;;12.05;9.45;;;;;;;;;;5029168;28;20694;-78
2023/09/08 03:05:44;;;;;;;17.75;9.68;;;;;;;;;;5009934;28;20049;-78
2023/09/08 03:08:10;;;;;;;12.00;8.95;;;;;;;;;;5031556;28;20040;-78
2023/09/08 03:10:36;;;;;;;10.93;9.73;;;;;;;;;;5014155;28;20569;-78
2023/09/08 03:13:03;;;;;;;11.52;9.68;;;;;;;;;;5013677;28;20052;-78
2023/09/08 03:15:29;;;;;;;12.68;10.77;;;;;;;;;;5035712;28;20051;-78
2023/09/08 03:17:55;;;;;;;14.25;10.95;;;;;;;;;;5016829;28;20049;-77
2023/09/08 03:20:21;;;;;;;13.52;10.48;;;;;;;;;;5030779;28;20040;-77
2023/09/08 03:22:48;;;;;;;12.73;10.43;;;;;;;;;;5035509;28;20041;-78
2023/09/08 03:25:15;;;;;;;12.75;10.77;;;;;;;;;;5026786;28;20049;-78
2023/09/08 03:27:41;;;;;;;11.73;10.52;;;;;;;;;;5025530;28;20066;-78
2023/09/08 03:30:07;;;;;;;14.63;10.43;;;;;;;;;;5044784;28;20045;-79
2023/09/08 03:32:34;;;;;;;15.52;11.23;;;;;;;;;;5040505;28;20066;-78
2023/09/08 03:35:00;;;;;;;12.07;10.88;;;;;;;;;;5041739;28;20059;-79
2023/09/08 03:37:26;;;;;;;12.63;11.05;;;;;;;;;;5023728;28;20115;-78
2023/09/08 03:39:52;;;;;;;11.88;10.57;;;;;;;;;;5037743;28;20056;-78
2023/09/08 03:42:19;;;;;;;16.38;12.02;;;;;;;;;;5034617;28;20045;-79
2023/09/08 03:44:45;;;;;;;16.02;10.90;;;;;;;;;;5022151;28;20082;-79
2023/09/08 03:47:11;;;;;;;13.13;11.38;;;;;;;;;;5031905;28;20608;-79
2023/09/08 03:49:37;;;;;;;15.63;11.52;;;;;;;;;;5031874;28;20048;-79
2023/09/08 03:52:03;;;;;;;13.00;10.43;;;;;;;;;;5017404;28;20056;-78
2023/09/08 03:54:29;;;;;;;11.65;10.45;;;;;;;;;;5018414;28;20050;-79
2023/09/08 03:56:56;;;;;;;13.25;10.52;;;;;;;;;;5019685;28;20055;-79
2023/09/08 03:59:22;;;;;;;12.85;11.50;;;;;;;;;;5017270;28;20048;-81
2023/09/08 04:01:48;;;;;;;14.50;11.52;;;;;;;;;;5029374;28;20053;-82
2023/09/08 04:04:14;;;;;;;14.75;12.00;;;;;;;;;;5047585;28;20622;-82
2023/09/08 04:06:40;;;;;;;12.85;11.05;;;;;;;;;;5022642;28;20045;-81
2023/09/08 04:09:06;;;;;;;13.77;11.10;;;;;;;;;;5007632;28;20079;-82
2023/09/08 04:11:32;;;;;;;17.67;11.07;;;;;;;;;;5042874;28;20071;-82
2023/09/08 04:13:58;;;;;;;13.57;11.73;;;;;;;;;;5025465;28;20048;-81
2023/09/08 04:16:24;;;;;;;12.95;11.40;;;;;;;;;;5026272;28;20064;-81
2023/09/08 04:18:50;;;;;;;13.20;11.90;;;;;;;;;;5023409;28;20044;-81
2023/09/08 04:21:16;;;;;;;14.85;12.00;;;;;;;;;;5023387;28;20091;-82
2023/09/08 04:23:42;;;;;;;16.33;13.13;;;;;;;;;;5026941;28;20137;-82
2023/09/08 04:26:08;;;;;;;18.50;13.65;;;;;;;;;;5042769;28;20041;-82
2023/09/08 04:28:34;;;;;;;18.42;14.13;;;;;;;;;;5044612;28;20988;-82
2023/09/08 04:31:00;;;;;;;15.75;14.25;;;;;;;;;;5022339;28;20485;-82
2023/09/08 04:33:28;;;;;;;18.42;14.50;;;;;;;;;;5030628;28;21549;-82
2023/09/08 04:35:54;;;;;;;17.45;15.65;;;;;;;;;;5006592;28;20056;-82
2023/09/08 04:38:21;;;;;;;18.13;16.20;;;;;;;;;;5037920;28;20865;-82
2023/09/08 04:40:48;;;;;;;18.80;16.80;;;;;;;;;;5024174;28;20417;-82
2023/09/08 04:43:14;;;;;;;19.17;17.15;;;;;;;;;;5021530;28;20064;-82
2023/09/08 04:45:40;;;;;;;27.27;20.25;;;;;;;;;;5008431;28;20083;-82
2023/09/08 04:48:06;;;;;;;22.08;19.67;;;;;;;;;;5039626;28;20063;-82
2023/09/08 04:50:32;;;;;;;32.10;23.48;;;;;;;;;;5021813;28;20128;-82
2023/09/08 04:52:59;;;;;;;29.58;26.48;;;;;;;;;;5039787;28;20036;-82
2023/09/08 04:55:25;;;;;;;29.75;26.75;;;;;;;;;;5003674;28;20221;-82
2023/09/08 04:57:51;;;;;;;29.52;25.95;;;;;;;;;;5039261;28;20714;-82
2023/09/08 05:00:17;;;;;;;35.40;31.58;;;;;;;;;;5005449;28;20048;-82
2023/09/08 05:02:44;;;;;;;32.38;28.88;;;;;;;;;;5023722;28;20040;-82
2023/09/08 05:05:10;;;;;;;37.50;32.35;;;;;;;;;;5020579;28;20045;-82
2023/09/08 05:07:36;;;;;;;41.30;36.78;;;;;;;;;;5039339;28;20052;-82
2023/09/08 05:10:03;;;;;;;43.83;39.22;;;;;;;;;;5027462;28;20040;-82
2023/09/08 05:12:29;;;;;;;51.83;45.65;;;;;;;;;;5022418;28;20090;-81
2023/09/08 05:14:59;;;;;;;52.22;43.00;;;;;;;;;;5022990;28;20041;-81
2023/09/08 05:17:25;;;;;;;54.85;45.63;;;;;;;;;;5024295;28;20048;-81
2023/09/08 05:19:52;;;;;;;54.17;46.08;;;;;;;;;;5032980;28;20053;-82
2023/09/08 05:22:18;;;;;;;54.97;49.10;;;;;;;;;;5008852;28;20052;-82
2023/09/08 05:24:44;;;;;;;90.55;77.75;;;;;;;;;;5024112;28;20041;-82
2023/09/08 05:27:10;;;;;;;93.32;81.28;;;;;;;;;;5042696;28;20499;-83
2023/09/08 05:29:36;;;;;;;98.28;84.20;;;;;;;;;;5007347;28;20146;-82
2023/09/08 05:32:02;;;;;;;93.30;82.47;;;;;;;;;;5020688;28;20053;-82
2023/09/08 05:34:28;;;;;;;96.93;81.75;;;;;;;;;;5022391;28;20079;-82
2023/09/08 05:36:54;;;;;;;90.82;80.88;;;;;;;;;;5026162;28;20055;-82
2023/09/08 05:39:20;;;;;;;84.68;72.47;;;;;;;;;;5022808;28;20129;-81
2023/09/08 05:41:47;;;;;;;85.95;73.00;;;;;;;;;;5020100;28;20052;-82
2023/09/08 05:44:13;;;;;;;72.75;63.50;;;;;;;;;;5005850;28;20088;-82
2023/09/08 05:46:39;;;;;;;74.25;60.47;;;;;;;;;;5014430;28;20049;-82
2023/09/08 05:49:05;;;;;;;64.32;54.65;;;;;;;;;;5026138;28;20053;-81
2023/09/08 05:51:31;;;;;;;57.95;49.78;;;;;;;;;;5023607;28;21542;-82
2023/09/08 05:53:58;;;;;;;60.63;50.60;;;;;;;;;;5021749;28;20820;-81
2023/09/08 05:56:31;;;;;;;57.53;47.90;;;;;;;;;;5019062;28;20052;-82
2023/09/08 05:58:57;;;;;;;46.22;41.33;;;;;;;;;;5018369;28;20669;-82
2023/09/08 06:01:24;;;;;;;45.60;37.28;;;;;;;;;;5004855;28;20045;-82
2023/09/08 06:03:50;;;;;;;32.47;27.40;;;;;;;;;;5024166;28;20539;-82
2023/09/08 06:06:16;;;;;;;39.63;34.78;;;;;;;;;;5019921;28;20049;-82
2023/09/08 06:08:42;;;;;;;32.65;26.70;;;;;;;;;;5021706;28;20076;-81
2023/09/08 06:11:08;;;;;;;24.05;17.48;;;;;;;;;;5020444;28;20444;-81
2023/09/08 06:13:34;;;;;;;19.92;14.02;;;;;;;;;;5018957;28;20040;-81
2023/09/08 06:16:00;;;;;;;17.77;12.70;;;;;;;;;;5018707;28;20497;-81
2023/09/08 06:18:30;;;;;;;20.13;11.73;;;;;;;;;;5022290;28;20049;-81
2023/09/08 06:20:56;;;;;;;18.63;10.77;;;;;;;;;;5020818;28;20048;-81
2023/09/08 06:23:22;;;;;;;19.02;11.27;;;;;;;;;;5004585;28;20045;-82
2023/09/08 06:25:49;;;;;;;17.13;10.77;;;;;;;;;;5035592;28;20497;-82
2023/09/08 06:28:15;;;;;;;15.38;10.02;;;;;;;;;;5013937;28;20091;-82
2023/09/08 06:30:41;;;;;;;17.58;9.88;;;;;;;;;;5004589;28;20049;-82
2023/09/08 06:33:10;;;;;;;15.20;10.80;;;;;;;;;;5022349;28;20512;-82
2023/09/08 06:35:37;;;;;;;16.25;10.77;;;;;;;;;;5019972;28;21617;-80
2023/09/08 06:38:03;;;;;;;20.23;9.63;;;;;;;;;;5018258;28;20181;-80
2023/09/08 06:40:32;;;;;;;16.42;10.02;;;;;;;;;;5021043;28;20135;-81
2023/09/08 06:42:58;;;;;;;14.57;9.77;;;;;;;;;;5023982;28;20037;-81
2023/09/08 06:45:24;;;;;;;11.52;9.88;;;;;;;;;;5018513;28;20354;-81
2023/09/08 06:47:54;;;;;;;15.77;9.55;;;;;;;;;;5007294;28;20662;-78
2023/09/08 06:50:20;;;;;;;13.70;10.15;;;;;;;;;;5021747;28;20052;-78
2023/09/08 06:52:46;;;;;;;11.18;9.88;;;;;;;;;;5020696;28;20045;-78
2023/09/08 06:55:16;;;;;;;15.75;9.98;;;;;;;;;;5004595;28;20059;-78
2023/09/08 06:57:42;;;;;;;13.98;10.63;;;;;;;;;;5021424;28;20135;-78
2023/09/08 07:00:08;;;;;;;12.25;9.43;;;;;;;;;;5004561;28;20094;-78
2023/09/08 07:02:34;;;;;;;13.80;9.60;;;;;;;;;;5023557;28;20425;-78
2023/09/08 07:05:06;;;;;;;11.48;10.32;;;;;;;;;;5036110;28;20048;-78
2023/09/08 07:07:32;;;;;;;17.60;10.18;;;;;;;;;;5022937;28;20134;-78
2023/09/08 07:09:58;;;;;;;13.00;9.35;;;;;;;;;;5037374;28;20047;-78
2023/09/08 07:12:24;;;;;;;20.88;9.18;;;;;;;;;;5038093;28;20040;-78
2023/09/08 07:14:50;;;;;;;12.50;9.35;;;;;;;;;;5005028;28;20045;-77
2023/09/08 07:17:16;;;;;;;10.68;9.07;;;;;;;;;;5039799;28;20076;-78
2023/09/08 07:19:45;;;;;;;14.60;10.23;;;;;;;;;;5008499;28;20130;-78
2023/09/08 07:22:11;;;;;;;12.93;9.15;;;;;;;;;;5020040;28;20049;-78
2023/09/08 07:24:37;;;;;;;10.93;9.52;;;;;;;;;;5018825;28;20053;-78
2023/09/08 07:27:03;;;;;;;10.90;9.10;;;;;;;;;;5035528;28;20404;-78
2023/09/08 07:29:29;;;;;;;13.20;9.80;;;;;;;;;;5035609;28;20044;-78
2023/09/08 07:31:55;;;;;;;12.68;10.35;;;;;;;;;;5037029;28;20048;-77
2023/09/08 07:34:21;;;;;;;13.90;10.27;;;;;;;;;;5038138;28;20049;-77
2023/09/08 07:36:47;;;;;;;13.80;10.88;;;;;;;;;;5036549;28;20047;-77
2023/09/08 07:39:13;;;;;;;13.45;11.05;;;;;;;;;;5022437;28;20483;-78
2023/09/08 07:41:40;;;;;;;12.75;10.02;;;;;;;;;;5020697;28;20087;-77
2023/09/08 07:44:06;;;;;;;14.55;10.30;;;;;;;;;;5023154;28;20049;-78
2023/09/08 07:46:33;;;;;;;13.07;11.27;;;;;;;;;;5021668;28;21742;-77
2023/09/08 07:48:59;;;;;;;16.38;12.30;;;;;;;;;;5041170;28;20331;-77
2023/09/08 07:51:26;;;;;;;13.27;11.85;;;;;;;;;;5039234;28;21473;-77
2023/09/08 07:53:53;;;;;;;12.13;10.85;;;;;;;;;;5021670;28;20044;-77
2023/09/08 07:56:20;;;;;;;17.50;11.63;;;;;;;;;;5039373;28;20553;-77
2023/09/08 07:58:46;;;;;;;14.52;12.43;;;;;;;;;;5040313;28;20046;-77
2023/09/08 08:01:13;;;;;;;17.13;11.65;;;;;;;;;;5027711;28;20135;-77
2023/09/08 08:03:39;;;;;;;15.25;12.05;;;;;;;;;;5039616;28;20051;-77
2023/09/08 08:06:06;;;;;;;17.88;12.10;;;;;;;;;;5024383;28;20305;-78
2023/09/08 08:08:32;;;;;;;13.27;11.90;;;;;;;;;;5043668;28;20052;-77
2023/09/08 08:10:59;;;;;;;17.00;11.55;;;;;;;;;;5030590;28;20235;-77
2023/09/08 08:13:25;;;;;;;17.88;11.77;;;;;;;;;;5041898;28;20040;-77
2023/09/08 08:15:51;;;;;;;19.05;11.57;;;;;;;;;;5042821;28;20036;-77
2023/09/08 08:18:17;;;;;;;14.60;12.38;;;;;;;;;;5026411;28;20079;-76
2023/09/08 08:20:43;;;;;;;12.93;11.60;;;;;;;;;;5025591;28;20045;-81
2023/09/08 08:23:09;;;;;;;13.93;11.32;;;;;;;;;;5026311;28;20330;-80
2023/09/08 08:25:36;;;;;;;13.77;11.95;;;;;;;;;;5023278;28;20438;-80
2023/09/08 08:28:02;;;;;;;14.75;12.20;;;;;;;;;;5025153;28;20037;-80
2023/09/08 08:30:28;;;;;;;15.68;11.85;;;;;;;;;;5008377;28;20056;-80
2023/09/08 08:32:54;;;;;;;22.05;12.98;;;;;;;;;;5014013;28;20040;-81
2023/09/08 08:35:21;;;;;;;17.77;11.23;;;;;;;;;;5041247;28;20032;-79
2023/09/08 08:37:47;;;;;;;13.88;12.20;;;;;;;;;;5040357;28;21762;-79
2023/09/08 08:40:13;;;;;;;15.20;11.93;;;;;;;;;;5024908;28;20045;-79
2023/09/08 08:42:40;;;;;;;14.23;11.70;;;;;;;;;;5025249;28;20048;-79
2023/09/08 08:45:06;;;;;;;13.90;12.40;;;;;;;;;;5044071;28;20086;-79
2023/09/08 08:47:33;;;;;;;15.18;10.85;;;;;;;;;;5041704;28;20062;-80
2023/09/08 08:50:00;;;;;;;13.38;10.65;;;;;;;;;;5038944;28;20163;-80
2023/09/08 08:52:26;;;;;;;11.57;9.60;;;;;;;;;;5038067;28;20749;-80
2023/09/08 08:54:53;;;;;;;12.80;9.20;;;;;;;;;;5021193;28;20094;-80
2023/09/08 08:57:19;;;;;;;10.07;9.07;;;;;;;;;;5006107;28;20135;-80
2023/09/08 08:59:46;;;;;;;14.70;8.43;;;;;;;;;;5038923;28;20500;-80
2023/09/08 09:02:14;;;;;;;11.50;9.18;;;;;;;;;;5022353;28;20436;-80
2023/09/08 09:04:41;;;;;;;12.77;7.65;;;;;;;;;;5012128;28;20051;-80
2023/09/08 09:07:07;;;;;;;13.45;7.43;;;;;;;;;;5018738;28;20041;-80
2023/09/08 09:09:34;;;;;;;15.02;7.40;;;;;;;;;;5020629;28;20051;-80
2023/09/08 09:12:02;;;;;;;8.45;6.78;;;;;;;;;;5039561;28;20484;-80
2023/09/08 09:14:29;;;;;;;11.27;7.47;;;;;;;;;;5011988;28;20062;-80
2023/09/08 09:16:57;;;;;;;12.80;6.78;;;;;;;;;;5019911;28;20881;-80
2023/09/08 09:19:31;;;;;;;9.55;6.30;;;;;;;;;;5020747;28;20377;-80
2023/09/08 09:21:58;;;;;;;12.55;7.03;;;;;;;;;;5020210;28;20048;-80
2023/09/08 09:24:33;;;;;;;9.15;6.30;;;;;;;;;;5020009;28;20048;-80
2023/09/08 09:27:05;;;;;;;6.95;6.25;;;;;;;;;;5038229;28;20049;-80
2023/09/08 09:29:31;;;;;;;8.55;6.75;;;;;;;;;;5008208;28;20390;-80
2023/09/08 09:32:05;;;;;;;16.85;6.63;;;;;;;;;;5006124;28;20416;-80
2023/09/08 09:34:32;;;;;;;7.85;6.45;;;;;;;;;;5023615;28;20646;-81
2023/09/08 09:36:58;;;;;;;13.57;5.97;;;;;;;;;;5006396;28;20519;-81
2023/09/08 09:39:25;;;;;;;7.22;5.93;;;;;;;;;;4986866;28;20971;-79
2023/09/08 09:41:55;;;;;;;7.60;6.40;;;;;;;;;;5019880;28;20047;-80
2023/09/08 09:44:21;;;;;;;6.78;5.75;;;;;;;;;;5021252;28;20060;-80
2023/09/08 09:46:48;;;;;;;8.85;6.30;;;;;;;;;;5020694;28;20597;-80
2023/09/08 09:49:17;;;;;;;9.27;5.90;;;;;;;;;;5023820;28;20036;-80
2023/09/08 09:51:44;;;;;;;9.07;5.80;;;;;;;;;;5040058;28;20047;-79
2023/09/08 09:54:10;;;;;;;6.88;6.15;;;;;;;;;;4990376;28;20052;-80
2023/09/08 09:56:38;;;;;;;7.78;5.70;;;;;;;;;;5020387;28;20051;-78
2023/09/08 09:59:04;;;;;;;9.43;5.70;;;;;;;;;;5021983;28;20147;-77
2023/09/08 10:01:31;;;;;;;9.77;5.82;;;;;;;;;;5038389;28;20382;-77
2023/09/08 10:03:58;;;;;;;6.65;5.55;;;;;;;;;;5036531;28;20040;-77
2023/09/08 10:06:26;;;;;;;10.18;5.68;;;;;;;;;;5021352;28;20066;-77
2023/09/08 10:08:52;;;;;;;6.72;5.30;;;;;;;;;;5018524;28;20110;-75
2023/09/08 10:11:20;;;;;;;9.27;5.15;;;;;;;;;;5035012;28;20063;-77
2023/09/08 10:13:47;;;;;;;7.50;5.25;;;;;;;;;;5039865;28;20090;-77
2023/09/08 10:16:16;;;;;;;9.13;5.47;;;;;;;;;;5041259;28;20053;-77
2023/09/08 10:18:44;;;;;;;9.52;5.47;;;;;;;;;;5038777;28;20538;-77
2023/09/08 10:21:11;;;;;;;8.68;4.72;;;;;;;;;;5019501;28;20750;-77
2023/09/08 10:23:39;;;;;;;5.05;4.40;;;;;;;;;;5035103;28;20075;-77
2023/09/08 10:26:06;;;;;;;11.45;4.57;;;;;;;;;;5018774;28;20755;-77
2023/09/08 10:28:33;;;;;;;13.27;5.13;;;;;;;;;;5037861;28;20041;-77
2023/09/08 10:30:59;;;;;;;12.07;4.68;;;;;;;;;;5018728;28;20106;-76
2023/09/08 10:33:26;;;;;;;6.85;4.60;;;;;;;;;;5019521;28;20055;-76
2023/09/08 10:35:53;;;;;;;7.28;4.53;;;;;;;;;;5034837;28;20067;-76
2023/09/08 10:38:23;;;;;;;8.93;4.50;;;;;;;;;;5017979;28;20084;-76
2023/09/08 10:40:50;;;;;;;6.50;4.53;;;;;;;;;;5040358;28;20302;-77
2023/09/08 10:43:17;;;;;;;7.15;4.70;;;;;;;;;;5041029;28;20045;-77
2023/09/08 10:45:44;;;;;;;6.78;4.50;;;;;;;;;;5023373;28;20045;-77
2023/09/08 10:48:10;;;;;;;7.05;4.90;;;;;;;;;;5002916;28;20052;-77
2023/09/08 10:50:40;;;;;;;8.48;4.93;;;;;;;;;;5019703;28;20649;-77
2023/09/08 10:53:17;;;;;;;5.32;4.75;;;;;;;;;;5035405;28;20421;-77
2023/09/08 10:55:53;;;;;;;6.40;4.57;;;;;;;;;;5034202;28;20040;-77
2023/09/08 10:58:31;;;;;;;8.38;4.43;;;;;;;;;;5035316;28;20048;-77
2023/09/08 11:01:00;;;;;;;8.38;4.18;;;;;;;;;;5019352;28;20045;-78
2023/09/08 11:03:41;;;;;;;8.85;4.40;;;;;;;;;;5018247;28;20052;-78
2023/09/08 11:06:07;;;;;;;5.85;4.10;;;;;;;;;;5018933;28;20052;-78
2023/09/08 11:08:35;;;;;;;7.43;4.38;;;;;;;;;;5036889;28;20158;-77
2023/09/08 11:11:02;;;;;;;6.75;4.40;;;;;;;;;;5017746;28;20051;-77
2023/09/08 11:13:28;;;;;;;7.40;4.25;;;;;;;;;;5035752;28;20144;-77
2023/09/08 11:15:54;;;;;;;4.72;4.20;;;;;;;;;;5035925;28;20041;-81
2023/09/08 11:18:27;;;;;;;5.10;4.50;;;;;;;;;;5019279;28;20496;-77
2023/09/08 11:20:53;;;;;;;6.05;4.03;;;;;;;;;;5037091;28;20043;-78
2023/09/08 11:23:20;;;;;;;4.85;4.35;;;30.60;99.90;;;;;;5041696;28;20139;-77
2023/09/08 11:25:47;;;;;;;7.72;4.50;;;;;;;;;;5022406;28;20581;-77
2023/09/08 11:28:13;;;;;;;5.15;3.63;;;;;;;;;;5039354;28;20049;-77
2023/09/08 11:30:42;;;;;;;5.90;4.07;;;;;;;;;;5020741;28;20078;-77
2023/09/08 11:33:15;;;;;;;11.05;4.95;;;;;;;;;;5022045;28;20469;-79
2023/09/08 11:35:43;;;;;;;8.75;4.05;;;;;;;;;;5021542;28;20811;-78
2023/09/08 11:38:10;;;;;;;7.63;4.13;;;;;;;;;;5019966;28;20398;-78
2023/09/08 11:40:36;;;;;;;6.22;4.15;;;;;;;;;;5042685;28;20083;-78
2023/09/08 11:43:03;;;;;;;8.70;4.38;;;;;;;;;;5026259;28;20050;-78
2023/09/08 11:45:30;;;;;;;8.00;4.20;;;;;;;;;;5043418;28;20076;-78
2023/09/08 11:47:56;;;;;;;5.25;3.70;;;;;;;;;;5024974;28;20411;-78
2023/09/08 11:50:23;;;;;;;4.50;3.95;;;;;;;;;;5026551;28;21670;-78
2023/09/08 11:52:53;;;;;;;7.40;3.88;;;;;;;;;;5024399;28;20422;-78
2023/09/08 11:55:19;;;;;;;7.68;4.25;;;;;;;;;;5042250;28;20040;-79
2023/09/08 11:57:50;;;;;;;8.68;3.80;;;;;;;;;;5026107;28;20544;-79
2023/09/08 12:00:17;;;;;;;7.13;3.95;;;;;;;;;;5042927;28;20128;-79
2023/09/08 12:02:45;;;;;;;8.05;3.80;;;;;;;;;;5043449;28;20040;-78
2023/09/08 12:05:22;;;;;;;4.43;3.63;;;;;;;;;;5044444;28;20502;-79
2023/09/08 12:07:49;;;;;;;6.07;3.97;;;;;;;;;;5043434;28;20048;-79
2023/09/08 12:10:15;;;;;;;6.20;3.83;;;;;;;;;;5013239;28;20040;-79
2023/09/08 12:12:45;;;;;;;5.63;3.67;;;;;;;;;;5023658;28;20056;-79
2023/09/08 12:15:11;;;;;;;4.22;3.70;;;;;;;;;;5041732;28;20754;-79
2023/09/08 12:17:50;;;;;;;5.00;3.65;;;;;;;;;;5040827;28;20135;-79
2023/09/08 12:20:16;;;;;;;7.30;3.80;;;;;;;;;;5043174;28;20504;-79
2023/09/08 12:22:52;;;;;;;9.38;3.85;;;;;;;;;;5024244;28;20044;-78
2023/09/08 12:25:19;;;;;;;5.82;3.65;;;;;;;;;;5042445;28;20045;-78
2023/09/08 12:27:46;;;;;;;5.50;3.80;;;;;;;;;;5022760;28;21744;-79
2023/09/08 12:30:29;;;;;;;5.32;3.55;;;;;;;;;;5044837;28;20067;-79
2023/09/08 12:32:56;;;;;;;12.55;3.97;;;;;;;;;;5041198;28;20405;-78
2023/09/08 12:35:22;;;;;;;8.27;3.60;;;;;;;;;;5040704;28;20042;-78
2023/09/08 12:37:52;;;;;;;11.93;3.92;;;;;;;;;;5042667;28;20048;-78
2023/09/08 12:40:18;;;;;;;6.28;3.78;;;;;;;;;;5024142;28;20047;-78
2023/09/08 12:42:44;;;;;;;8.60;3.80;;;;;;;;;;5024693;28;20088;-78
2023/09/08 12:45:10;;;;;;;7.03;3.63;;;;;;;;;;5043198;28;20056;-78
2023/09/08 12:47:37;;;;;;;4.10;3.30;;;;;;;;;;5005922;28;20523;-78
2023/09/08 12:50:04;;;;;;;6.93;3.53;;;;;;;;;;5024254;28;20480;-77
2023/09/08 12:52:31;;;;;;;7.20;3.90;;;;;;;;;;5041008;28;20079;-77
2023/09/08 12:55:00;;;;;;;5.88;3.60;;;;;;;;;;5038509;28;20041;-77
2023/09/08 12:57:26;;;;;;;5.90;3.75;;;;;;;;;;5038285;28;20052;-77
2023/09/08 12:59:52;;;;;;;6.50;3.80;;;;;;;;;;5038582;28;20582;-78
2023/09/08 13:02:18;;;;;;;6.80;3.42;;;;;;;;;;5020545;28;20159;-77
2023/09/08 13:04:48;;;;;;;9.93;3.85;;;;;;;;;;5018432;28;20045;-78
2023/09/08 13:07:14;;;;;;;7.82;3.65;;;;;;;;;;5020995;28;20041;-77
2023/09/08 13:09:40;;;;;;;7.90;3.45;;;;;;;;;;5038458;28;20036;-78
2023/09/08 13:12:08;;;;;;;8.15;3.80;;;;;;;;;;5037162;28;20416;-78
2023/09/08 13:14:35;;;;;;;7.07;3.95;;;;;;;;;;5038539;28;22079;-78
2023/09/08 13:17:01;;;;;;;5.43;3.25;;;;;;;;;;5019981;28;20179;-78
2023/09/08 13:19:27;;;;;;;8.57;3.65;;;;;;;;;;5036821;28;20111;-78
2023/09/08 13:21:53;;;;;;;4.70;3.60;;;;;;;;;;5022711;28;20040;-77
2023/09/08 13:24:21;;;;;;;6.28;3.83;;;;;;;;;;5019063;28;20067;-77
2023/09/08 13:26:47;;;;;;;5.15;3.80;;;;;;;;;;5039282;28;20183;-77
2023/09/08 13:29:14;;;;;;;4.88;4.00;;;;;;;;;;5019490;28;20045;-77
2023/09/08 13:31:40;;;;;;;5.80;3.50;;;;;;;;;;5038253;28;20044;-77
2023/09/08 13:34:06;;;;;;;8.10;3.53;;;;;;;;;;5018889;28;20086;-77
2023/09/08 13:36:32;;;;;;;7.00;3.35;;;;;;;;;;5018198;28;20040;-77
2023/09/08 13:38:58;;;;;;;7.22;3.53;;;;;;;;;;5039435;28;20048;-78
2023/09/08 13:41:24;;;;;;;5.63;3.55;;;;;;;;;;5023412;28;20127;-78
2023/09/08 13:43:50;;;;;;;4.88;3.67;;;;;;;;;;5023738;28;20051;-78
2023/09/08 13:46:17;;;;;;;6.85;4.00;;;;;;;;;;4987758;28;20092;-78
2023/09/08 13:48:43;;;;;;;7.80;3.53;;;;;;;;;;5038592;28;20591;-77
2023/09/08 13:51:09;;;;;;;4.93;3.65;;;;;;;;;;5037718;28;20048;-77
2023/09/08 13:53:36;;;;;;;3.67;3.35;;;;;;;;;;5036946;28;20041;-79
2023/09/08 13:56:04;;;;;;;8.27;3.55;;;;;;;;;;5039178;28;20045;-78
2023/09/08 13:58:30;;;;;;;8.77;3.42;;;;;;;;;;5023082;28;20213;-78
2023/09/08 14:00:56;;;;;;;7.45;3.55;;;;;;;;;;5041612;28;20103;-78
2023/09/08 14:03:23;;;;;;;4.13;3.45;;;;;;;;;;5023226;28;20152;-78
2023/09/08 14:05:49;;;;;;;6.55;3.53;;;;;;;;;;5022333;28;20048;-78
2023/09/08 14:08:15;;;;;;;6.75;3.80;;;;;;;;;;5018069;28;21644;-78
2023/09/08 14:10:41;;;;;;;7.97;3.47;;;;;;;;;;5035811;28;20056;-78
2023/09/08 14:13:07;;;;;;;9.88;3.75;;;;;;;;;;5036902;28;20049;-79
2023/09/08 14:15:33;;;;;;;8.43;3.60;;;;;;;;;;5020051;28;20055;-77
2023/09/08 14:17:59;;;;;;;4.22;3.45;;;;;;;;;;5036807;28;20481;-78
2023/09/08 14:20:25;;;;;;;6.15;4.00;;;;;;;;;;5036999;28;20393;-78
2023/09/08 14:22:52;;;;;;;5.97;3.50;;;;;;;;;;5036280;28;20040;-78
2023/09/08 14:25:18;;;;;;;6.88;3.22;;;;;;;;;;5038324;28;20048;-78
2023/09/08 14:27:44;;;;;;;6.82;3.67;;;;;;;;;;5018643;28;20073;-78